Startpagina
METAR-TAF:

METAR-TAF

Vliegvelden :

Kenai, Alaska, Verenigde Staten

breedte: 60-34-23N, lengte: 151-14-42W, hoogte: 30 m

Actueel weer

Dit bericht is 39 minuten geleden gemaakt, om 15:53 UTC
Wind 3 kt uit het noorden
Temperatuur 1°C
Vochtigheid 86%
Druk 995 hPa
Zicht: 16.1 km
Geheel bewolkt op 7000 ft

METAR: PAEN 181553Z 35003KT 10SM OVC070 01/M01 A2939 RMK AO2 SLP955 T00061006

Tijdstip: 08:32 (16:32 UTC)

Verwachting

Dit bericht is 53 minuten geleden gemaakt, om 15:39 UTC
Verwachting geldig van 18 om 12 UTC tot 19 om 12 UTC
Wind 5 kt uit variabele richting
Zicht: 10 km
Geheel bewolkt op 4000 ft
Van 18 om 2100 UTC
Wind 10 kt uit het westzuidwesten
Zicht: 10 km
Weinig wolken op 4000 ft
Gebroken wolken op 7000 ft
Van 19 om 0200 UTC
Wind 11 kt uit het zuiden
Zicht: 10 km
Gebroken wolken op 3500 ft
Geheel bewolkt op 5000 ft
buien in de omgeving

TAF: PAEN 181539Z 1812/1912 VRB05KT P6SM OVC040 FM182100 24010KT P6SM FEW040 BKN070 FM190200 19011KT P6SM VCSH BKN035 OVC050

Waarnemingen en weersverwachtingen van meer dan 4000 vliegvelden (METAR en TAF).

De beschikbare stations zijn de gele en rode punten op de kaart.

Ga met uw muis naar het station om de naam te zien.

Klik dan om waarnemingen en weersverwachtingen te zien.

kaart wijzigen: klik op de groene knoppen met een zwart kruis om in te zoomen, op de groene knop met een streepje om uit te zoomen of op de groene pijlen voor aangrenzende kaarten.


METAR-TAF: